Time;durP1;ratioP1;P1;durP2;ratioP2;P2;SDS_P1;SDS_P2;PMS_P1;PMS_P2;Temp;Humidity;BMP_temperature;BMP_pressure;BME280_temperature;BME280_humidity;BME280_pressure;Samples;Min_cycle;Max_cycle;Signal;HPM_P1;HPM_P2
2024/01/05 00:00:32;;;;;;;16.10;7.32;;;;;;;;;;5043297;28;20496;-70
2024/01/05 00:02:59;;;;;;;21.30;7.20;;;;;;;;;;5041928;28;20803;-69
2024/01/05 00:05:26;;;;;;;20.65;7.68;;;;;;;;;;5043242;28;20500;-70
2024/01/05 00:07:53;;;;;;;21.65;7.63;;;;;;;;;;5043034;28;20053;-71
2024/01/05 00:10:19;;;;;;;24.42;8.43;;;;;;;;;;5043076;28;20056;-70
2024/01/05 00:12:46;;;;;;;22.88;7.95;;;;;;;;;;5043460;28;20172;-71
2024/01/05 00:15:12;;;;;;;17.85;7.60;;;;;;;;;;5044211;28;20073;-71
2024/01/05 00:17:39;;;;;;;22.80;7.47;;;;;;;;;;5044365;28;20049;-71
2024/01/05 00:20:07;;;;;;;25.92;8.18;;;;;;;;;;5044446;28;20053;-71
2024/01/05 00:22:34;;;;;;;18.58;8.57;;;;;;;;;;5042916;28;20554;-70
2024/01/05 00:25:00;;;;;;;20.67;8.45;;;;;;;;;;5042240;28;20534;-70
2024/01/05 00:27:27;;;;;;;18.67;7.60;;;;;;;;;;5043145;28;20061;-70
2024/01/05 00:29:53;;;;;;;22.42;8.02;;;;;;;;;;5043504;28;20080;-70
2024/01/05 00:32:20;;;;;;;15.93;6.93;;;;;;;;;;5042324;28;20058;-69
2024/01/05 00:34:46;;;;;;;19.60;7.18;;;;;;;;;;5043151;28;20056;-70
2024/01/05 00:37:13;;;;;;;21.88;8.07;;;;;;;;;;5041886;28;20061;-70
2024/01/05 00:39:40;;;;;;;19.52;8.25;;;;;;;;;;5041946;28;20597;-70
2024/01/05 00:42:06;;;;;;;17.95;7.53;;;;;;;;;;5043034;28;20140;-70
2024/01/05 00:44:33;;;;;;;16.17;7.75;;;;;;;;;;5043283;28;20057;-70
2024/01/05 00:47:00;;;;;;;27.73;7.43;;;;;;;;;;5039526;28;20089;-70
2024/01/05 00:49:26;;;;;;;24.30;8.68;;;;;;;;;;5042057;28;20145;-70
2024/01/05 00:51:52;;;;;;;19.52;7.40;;;;;;;;;;5043366;28;20184;-70
2024/01/05 00:54:19;;;;;;;12.38;6.72;;;;;;;;;;5043931;28;20061;-72
2024/01/05 00:56:46;;;;;;;17.50;7.53;;;;;;;;;;5041736;28;20112;-71
2024/01/05 00:59:12;;;;;;;20.67;7.43;;;;;;;;;;5043742;28;20046;-72
2024/01/05 01:01:39;;;;;;;19.50;7.78;;;;;;;;;;5038490;28;20061;-71
2024/01/05 01:04:05;;;;;;;17.88;7.30;;;;;;;;;;5043323;28;20057;-72
2024/01/05 01:06:32;;;;;;;16.65;6.70;;;;;;;;;;5042418;28;20435;-72
2024/01/05 01:08:58;;;;;;;15.27;7.70;;;;;;;;;;5042494;28;20069;-72
2024/01/05 01:11:25;;;;;;;17.42;6.85;;;;;;;;;;5040412;28;20107;-71
2024/01/05 01:13:54;;;;;;;15.48;7.15;;;;;;;;;;5042385;28;20561;-70
2024/01/05 01:16:20;;;;;;;16.08;7.15;;;;;;;;;;5043540;28;20041;-71
2024/01/05 01:18:46;;;;;;;19.00;7.55;;;;;;;;;;5043095;28;20049;-70
2024/01/05 01:21:13;;;;;;;20.38;8.20;;;;;;;;;;5042611;28;20135;-70
2024/01/05 01:23:39;;;;;;;24.20;8.27;;;;;;;;;;5041626;28;20056;-71
2024/01/05 01:26:06;;;;;;;18.58;7.65;;;;;;;;;;5043237;28;20137;-70
2024/01/05 01:28:32;;;;;;;21.17;9.27;;;;;;;;;;5042556;28;20058;-70
2024/01/05 01:30:59;;;;;;;25.58;7.10;;;;;;;;;;5042372;28;20107;-69
2024/01/05 01:33:25;;;;;;;18.38;6.97;;;;;;;;;;5042245;28;20515;-70
2024/01/05 01:35:52;;;;;;;17.90;7.60;;;;;;;;;;5041696;28;20516;-70
2024/01/05 01:38:19;;;;;;;18.60;6.95;;;;;;;;;;5041489;28;20492;-69
2024/01/05 01:40:46;;;;;;;14.88;7.25;;;;;;;;;;5041818;28;20054;-70
2024/01/05 01:43:20;;;;;;;16.20;7.60;;;;;;;;;;5035394;28;20129;-70
2024/01/05 01:45:46;;;;;;;16.58;7.10;;;;;;;;;;5035223;28;20069;-70
2024/01/05 01:48:14;;;;;;;17.25;7.75;;;;;;;;;;5041556;28;20099;-70
2024/01/05 01:50:40;;;;;;;25.05;7.55;;;;;;;;;;5042118;28;20282;-70
2024/01/05 01:53:07;;;;;;;18.92;7.10;;;;;;;;;;5042313;28;20141;-70
2024/01/05 01:55:33;;;;;;;16.30;6.80;;;;;;;;;;5041893;28;20058;-70
2024/01/05 01:58:00;;;;;;;21.17;7.30;;;;;;;;;;5041973;28;20733;-70
2024/01/05 02:00:27;;;;;;;17.58;6.88;;;;;;;;;;5041878;28;20136;-70
2024/01/05 02:02:54;;;;;;;15.90;6.90;;;;;;;;;;5039988;28;20054;-71
2024/01/05 02:05:20;;;;;;;22.25;6.80;;;;;;;;;;5042069;28;20582;-70
2024/01/05 02:07:47;;;;;;;20.05;7.43;;;;;;;;;;5041891;28;20068;-70
2024/01/05 02:10:14;;;;;;;16.20;7.20;;;;;;;;;;5042166;28;20064;-70
2024/01/05 02:12:42;;;;;;;21.67;7.25;;;;;;;;;;5041751;28;20140;-72
2024/01/05 02:15:08;;;;;;;20.63;7.35;;;;;;;;;;5041572;28;20080;-70
2024/01/05 02:17:34;;;;;;;24.63;7.30;;;;;;;;;;5025424;28;20062;-70
2024/01/05 02:20:02;;;;;;;20.48;7.20;;;;;;;;;;5027194;28;20057;-70
2024/01/05 02:22:29;;;;;;;15.88;6.45;;;;;;;;;;5045142;28;20049;-69
2024/01/05 02:24:56;;;;;;;17.67;6.55;;;;;;;;;;5045397;28;20060;-70
2024/01/05 02:27:23;;;;;;;19.75;7.10;;;;;;;;;;5044759;28;20063;-70
2024/01/05 02:29:49;;;;;;;12.18;6.20;;;;;;;;;;5044365;28;20045;-70
2024/01/05 02:32:16;;;;;;;16.55;6.25;;;;;;;;;;5044586;28;20065;-69
2024/01/05 02:34:43;;;;;;;26.00;6.43;;;;;;;;;;5044216;28;20529;-70
2024/01/05 02:37:09;;;;;;;19.30;6.13;;;;;;;;;;5044318;28;20067;-72
2024/01/05 02:39:36;;;;;;;13.00;5.60;;;;;;;;;;5043671;28;20053;-70
2024/01/05 02:42:02;;;;;;;25.05;7.18;;;;;;;;;;5045303;28;21083;-69
2024/01/05 02:44:29;;;;;;;16.35;6.07;;;;;;;;;;5044762;28;20401;-70
2024/01/05 02:46:56;;;;;;;19.02;5.75;;;;;;;;;;5043357;28;20092;-69
2024/01/05 02:49:22;;;;;;;10.13;5.22;;;;;;;;;;5045286;28;20045;-69
2024/01/05 02:51:49;;;;;;;14.88;5.53;;;;;;;;;;5045161;28;20060;-70
2024/01/05 02:54:15;;;;;;;19.05;5.28;;;;;;;;;;5045175;28;20077;-70
2024/01/05 02:56:42;;;;;;;19.73;6.03;;;;;;;;;;5044649;28;20127;-72
2024/01/05 02:59:08;;;;;;;16.13;5.57;;;;;;;;;;5045069;28;20057;-72
2024/01/05 03:01:35;;;;;;;17.35;4.88;;;;;;;;;;5043214;28;20050;-71
2024/01/05 03:04:01;;;;;;;24.25;5.15;;;;;;;;;;5028363;28;20060;-71
2024/01/05 03:06:28;;;;;;;20.42;6.95;;;;;;;;;;5025497;28;20054;-71
2024/01/05 03:08:55;;;;;;;16.08;4.72;;;;;;;;;;5040696;28;20049;-70
2024/01/05 03:11:21;;;;;;;17.05;4.78;;;;;;;;;;5045543;28;20131;-71
2024/01/05 03:13:48;;;;;;;14.63;5.28;;;;;;;;;;5046398;28;20065;-72
2024/01/05 03:16:14;;;;;;;15.50;4.45;;;;;;;;;;5045977;28;20054;-69
2024/01/05 03:18:41;;;;;;;16.77;4.80;;;;;;;;;;5041575;28;20208;-71
2024/01/05 03:21:07;;;;;;;16.10;4.57;;;;;;;;;;5043993;28;20136;-71
2024/01/05 03:23:34;;;;;;;10.35;3.90;;;;;;;;;;5042651;28;20088;-71
2024/01/05 03:26:00;;;;;;;10.38;3.63;;;;;;;;;;5044918;28;20637;-72
2024/01/05 03:28:26;;;;;;;7.95;3.70;;;;;;;;;;5043929;28;20610;-72
2024/01/05 03:30:53;;;;;;;14.95;3.63;;;;;;;;;;5043891;28;20491;-72
2024/01/05 03:33:20;;;;;;;21.23;4.10;;;;;;;;;;5043514;28;20060;-71
2024/01/05 03:35:46;;;;;;;13.77;3.38;;;;;;;;;;5043617;28;20109;-71
2024/01/05 03:38:13;;;;;;;18.38;4.22;;;;;;;;;;5043936;28;20140;-71
2024/01/05 03:40:39;;;;;;;14.77;3.10;;;;;;;;;;5044878;28;20049;-72
2024/01/05 03:43:06;;;;;;;14.43;3.20;;;;;;;;;;5044947;28;20050;-70
2024/01/05 03:45:32;;;;;;;9.90;3.40;;;;;;;;;;5042943;28;20064;-70
2024/01/05 03:47:58;;;;;;;20.75;4.82;;;;;;;;;;5042942;28;20578;-69
2024/01/05 03:50:25;;;;;;;9.45;2.75;;;;;;;;;;5044480;28;20141;-72
2024/01/05 03:52:51;;;;;;;18.85;3.50;;;;;;;;;;5043160;28;20054;-73
2024/01/05 03:55:18;;;;;;;11.77;2.75;;;;;;;;;;5044018;28;20099;-71
2024/01/05 03:57:44;;;;;;;9.23;2.78;;;;;;;;;;5042628;28;20054;-71
2024/01/05 04:00:11;;;;;;;13.60;3.40;;;;;;;;;;5028956;28;20045;-71
2024/01/05 04:02:37;;;;;;;10.10;2.30;;;;;;;;;;5043282;28;20089;-71
2024/01/05 04:05:04;;;;;;;8.00;2.35;;;;;;;;;;5027238;28;20104;-71
2024/01/05 04:07:31;;;;;;;8.80;2.67;;;;;;;;;;5043047;28;20057;-71
2024/01/05 04:09:57;;;;;;;12.05;3.03;;;;;;;;;;5043270;28;20056;-71
2024/01/05 04:12:23;;;;;;;13.15;2.10;;;;;;;;;;5044506;28;20077;-70
2024/01/05 04:14:50;;;;;;;9.75;2.40;;;;;;;;;;5043316;28;20133;-70
2024/01/05 04:17:16;;;;;;;10.70;2.55;;;;;;;;;;5043609;28;20053;-70
2024/01/05 04:19:43;;;;;;;12.05;2.85;;;;;;;;;;5041924;28;20523;-69
2024/01/05 04:22:09;;;;;;;12.43;2.80;;;;;;;;;;5043005;28;20116;-70
2024/01/05 04:24:36;;;;;;;5.65;2.00;;;;;;;;;;5039136;28;20046;-70
2024/01/05 04:27:02;;;;;;;9.38;2.25;;;;;;;;;;5042867;28;20107;-70
2024/01/05 04:29:29;;;;;;;9.48;3.13;;;;;;;;;;5043078;28;20511;-69
2024/01/05 04:31:55;;;;;;;8.48;2.22;;;;;;;;;;5042638;28;20061;-70
2024/01/05 04:34:22;;;;;;;8.65;1.85;;;;;;;;;;5042582;28;20535;-70
2024/01/05 04:36:48;;;;;;;6.07;2.15;;;;;;;;;;5042476;28;20165;-70
2024/01/05 04:39:14;;;;;;;7.40;2.17;;;;;;;;;;5042374;28;20140;-70
2024/01/05 04:41:41;;;;;;;6.65;2.00;;;;;;;;;;5042597;28;20053;-70
2024/01/05 04:44:08;;;;;;;6.22;2.72;;;;;;;;;;5042757;28;20054;-70
2024/01/05 04:46:34;;;;;;;6.38;1.95;;;;;;;;;;5042463;28;20055;-70
2024/01/05 04:49:00;;;;;;;6.60;1.58;;;;;;;;;;5042831;28;20139;-70
2024/01/05 04:51:27;;;;;;;5.28;1.70;;;;;;;;;;5042163;28;20053;-70
2024/01/05 04:53:53;;;;;;;9.02;2.00;;;;;;;;;;5041834;28;20930;-69
2024/01/05 04:56:20;;;;;;;8.52;1.88;;;;;;;;;;5032432;28;20058;-70
2024/01/05 04:58:46;;;;;;;8.48;2.35;;;;;;;;;;5023479;28;20057;-70
2024/01/05 05:01:13;;;;;;;7.90;2.88;;;;;;;;;;5036290;28;20053;-69
2024/01/05 05:03:39;;;;;;;9.23;2.13;;;;;;;;;;5043166;28;20053;-70
2024/01/05 05:06:06;;;;;;;7.65;2.00;;;;;;;;;;5041745;28;20148;-70
2024/01/05 05:08:32;;;;;;;5.50;1.77;;;;;;;;;;5043320;28;20060;-69
2024/01/05 05:10:59;;;;;;;6.53;1.92;;;;;;;;;;5042867;28;20057;-70
2024/01/05 05:13:25;;;;;;;6.72;1.55;;;;;;;;;;5041529;28;20049;-70
2024/01/05 05:15:51;;;;;;;17.08;2.60;;;;;;;;;;5041677;28;20053;-70
2024/01/05 05:18:18;;;;;;;11.43;2.97;;;;;;;;;;5043782;28;20058;-69
2024/01/05 05:20:44;;;;;;;8.15;1.90;;;;;;;;;;5042033;28;20054;-69
2024/01/05 05:23:11;;;;;;;6.70;2.15;;;;;;;;;;5042038;28;20049;-70
2024/01/05 05:25:37;;;;;;;8.82;1.73;;;;;;;;;;5041998;28;20112;-70
2024/01/05 05:28:04;;;;;;;5.80;1.70;;;;;;;;;;5042235;28;20737;-70
2024/01/05 05:30:31;;;;;;;7.18;3.13;;;;;;;;;;5041273;28;20542;-70
2024/01/05 05:32:58;;;;;;;8.77;1.83;;;;;;;;;;5042196;28;20084;-70
2024/01/05 05:35:24;;;;;;;7.40;1.88;;;;;;;;;;5042825;28;20057;-69
2024/01/05 05:37:51;;;;;;;8.18;2.60;;;;;;;;;;5042376;28;20092;-70
2024/01/05 05:40:17;;;;;;;9.95;1.83;;;;;;;;;;5041796;28;20546;-70
2024/01/05 05:42:44;;;;;;;9.02;1.88;;;;;;;;;;5042266;28;20053;-69
2024/01/05 05:45:11;;;;;;;14.27;2.28;;;;;;;;;;5041741;28;20084;-69
2024/01/05 05:47:37;;;;;;;8.50;1.95;;;;;;;;;;5036172;28;20057;-69
2024/01/05 05:50:07;;;;;;;6.80;1.70;;;;;;;;;;5041915;28;20540;-69
2024/01/05 05:52:34;;;;;;;12.98;2.17;;;;;;;;;;5042978;28;20056;-70
2024/01/05 05:55:01;;;;;;;9.40;2.00;;;;;;;;;;5041888;28;20053;-69
2024/01/05 05:57:28;;;;;;;11.07;2.45;;;;;;;;;;5045540;28;20049;-70
2024/01/05 05:59:54;;;;;;;14.13;2.40;;;;;;;;;;5046136;28;20057;-69
2024/01/05 06:02:21;;;;;;;5.13;2.00;;;;;;;;;;5045434;28;20088;-69
2024/01/05 06:04:47;;;;;;;9.27;2.33;;;;;;;;;;5045431;28;20507;-69
2024/01/05 06:07:14;;;;;;;6.70;1.85;;;;;;;;;;5045172;28;20095;-67
2024/01/05 06:09:40;;;;;;;9.10;2.53;;;;;;;;;;5045810;28;20060;-69
2024/01/05 06:12:07;;;;;;;4.65;1.90;;;;;;;;;;5046167;28;20057;-70
2024/01/05 06:14:33;;;;;;;5.20;2.42;;;;;;;;;;5045846;28;20519;-68
2024/01/05 06:17:00;;;;;;;10.80;2.50;;;;;;;;;;5045508;28;20116;-69
2024/01/05 06:19:27;;;;;;;6.68;2.20;;;;;;;;;;5045254;28;21275;-70
2024/01/05 06:21:53;;;;;;;9.77;1.77;;;;;;;;;;5046198;28;20057;-70
2024/01/05 06:24:19;;;;;;;6.22;1.90;;;;;;;;;;5045333;28;20494;-69
2024/01/05 06:26:46;;;;;;;6.93;1.73;;;;;;;;;;5045277;28;20049;-70
2024/01/05 06:29:12;;;;;;;5.32;2.05;;;;;;;;;;5045936;28;20111;-70
2024/01/05 06:31:39;;;;;;;5.68;1.85;;;;;;;;;;5045633;28;20054;-70
2024/01/05 06:34:06;;;;;;;4.70;2.00;;;;;;;;;;5045753;28;20053;-70
2024/01/05 06:36:32;;;;;;;8.60;2.00;;;;;;;;;;5044865;28;20522;-70
2024/01/05 06:38:59;;;;;;;10.00;2.88;;;;;;;;;;5045598;28;20046;-69
2024/01/05 06:41:25;;;;;;;5.85;2.00;;;;;;;;;;5043942;28;20112;-70
2024/01/05 06:43:52;;;;;;;8.38;2.10;;;;;;;;;;5044973;28;20049;-70
2024/01/05 06:46:19;;;;;;;5.72;1.92;;;;;;;;;;5045847;28;20526;-70
2024/01/05 06:48:45;;;;;;;4.03;2.50;;;;;;;;;;5045123;28;20061;-70
2024/01/05 06:51:12;;;;;;;7.15;1.50;;;;;;;;;;5045315;28;20601;-69
2024/01/05 06:53:38;;;;;;;9.32;2.05;;;;;;;;;;5045543;28;20092;-70
2024/01/05 06:56:05;;;;;;;13.82;3.38;;;;;;;;;;5042465;28;20061;-70
2024/01/05 06:58:34;;;;;;;4.63;1.95;;;;;;;;;;5039440;28;20053;-69
2024/01/05 07:01:01;;;;;;;8.07;2.22;;;;;;;;;;5041780;28;20053;-69
2024/01/05 07:03:27;;;;;;;9.20;2.42;;;;;;;;;;5043722;28;20468;-69
2024/01/05 07:05:54;;;;;;;6.03;1.95;;;;;;;;;;5042918;28;20049;-69
2024/01/05 07:08:21;;;;;;;5.15;2.08;;;;;;;;;;5043085;28;20350;-70
2024/01/05 07:10:47;;;;;;;4.57;1.90;;;;;;;;;;5044350;28;20088;-70
2024/01/05 07:13:14;;;;;;;6.97;2.10;;;;;;;;;;5044697;28;20053;-70
2024/01/05 07:15:40;;;;;;;5.93;1.77;;;;;;;;;;5042945;28;20103;-69
2024/01/05 07:18:06;;;;;;;4.20;2.05;;;;;;;;;;5043366;28;20132;-69
2024/01/05 07:20:33;;;;;;;4.05;1.45;;;;;;;;;;5044042;28;20048;-70
2024/01/05 07:23:00;;;;;;;6.70;1.45;;;;;;;;;;5044776;28;20061;-70
2024/01/05 07:25:26;;;;;;;3.45;1.48;;;;;;;;;;5043159;28;20058;-70
2024/01/05 07:27:53;;;;;;;3.90;1.38;;;;;;;;;;5044669;28;20061;-69
2024/01/05 07:30:19;;;;;;;5.75;1.73;;;;;;;;;;5044943;28;20057;-70
2024/01/05 07:32:46;;;;;;;7.35;1.80;;;;;;;;;;5043653;28;20096;-70
2024/01/05 07:35:13;;;;;;;4.78;1.65;;;;;;;;;;5042271;28;20152;-69
2024/01/05 07:37:39;;;;;;;4.38;1.30;;;;;;;;;;5043779;28;20096;-70
2024/01/05 07:40:06;;;;;;;8.15;1.90;;;;;;;;;;5039305;28;20064;-69
2024/01/05 07:42:32;;;;;;;4.95;1.60;;;;;;;;;;5043003;28;20057;-68
2024/01/05 07:45:00;;;;;;;4.70;1.40;;;;;;;;;;5043259;28;20278;-70
2024/01/05 07:47:26;;;;;;;2.38;1.00;;;;;;;;;;5043376;28;20488;-70
2024/01/05 07:49:53;;;;;;;3.42;1.20;;;;;;;;;;5040041;28;20057;-71
2024/01/05 07:52:19;;;;;;;2.30;1.00;;;;;;;;;;5045085;28;20494;-69
2024/01/05 07:54:46;;;;;;;2.28;1.15;;;;;;;;;;5042696;28;20049;-70
2024/01/05 07:57:12;;;;;;;3.92;1.20;;;;;;;;;;5044350;28;20495;-70
2024/01/05 07:59:39;;;;;;;2.83;0.75;;;;;;;;;;5039547;28;20103;-70
2024/01/05 08:02:06;;;;;;;2.42;0.90;;;;;;;;;;5043455;28;20520;-70
2024/01/05 08:04:34;;;;;;;0.70;0.70;;;;;;;;;;5037217;28;20061;-71
2024/01/05 08:07:00;;;;;;;1.88;0.82;;;;;;;;;;5024116;28;20154;-70
2024/01/05 08:09:27;;;;;;;0.70;0.60;;;;;;;;;;5038835;28;20053;-70
2024/01/05 08:11:53;;;;;;;3.15;0.90;;;;;;;;;;5043029;28;20140;-71
2024/01/05 08:14:20;;;;;;;0.88;0.70;;;;;;;;;;5044245;28;20162;-70
2024/01/05 08:16:46;;;;;;;1.33;0.50;;;;;;;;;;5041639;28;20049;-70
2024/01/05 08:19:13;;;;;;;1.95;0.88;;;;;;;;;;5043070;28;20628;-70
2024/01/05 08:21:40;;;;;;;1.88;0.70;;;;;;;;;;5037898;28;20073;-71
2024/01/05 08:24:06;;;;;;;0.95;0.60;;;;;;;;;;5040495;28;20049;-70
2024/01/05 08:26:33;;;;;;;0.70;0.70;;;;;;;;;;5041008;28;20085;-71
2024/01/05 08:29:00;;;;;;;1.63;0.80;;;;;;;;;;5043015;28;20084;-71
2024/01/05 08:31:26;;;;;;;4.65;0.80;;;;;;;;;;5043565;28;20137;-70
2024/01/05 08:33:53;;;;;;;1.50;0.82;;;;;;;;;;5042120;28;20990;-71
2024/01/05 08:36:19;;;;;;;1.45;0.68;;;;;;;;;;5039033;28;20057;-70
2024/01/05 08:38:46;;;;;;;0.90;0.80;;;;;;;;;;5042266;28;20180;-71
2024/01/05 08:41:12;;;;;;;2.25;0.80;;;;;;;;;;5042581;28;20558;-70
2024/01/05 08:43:43;;;;;;;2.10;0.98;;;;;;;;;;5043043;28;20123;-70
2024/01/05 08:46:10;;;;;;;1.30;0.80;;;;;;;;;;5026408;28;20054;-71
2024/01/05 08:48:38;;;;;;;1.65;0.75;;;;;;;;;;5043178;28;20081;-71
2024/01/05 08:51:04;;;;;;;1.40;0.70;;;;;;;;;;5042980;28;20503;-70
2024/01/05 08:53:31;;;;;;;1.33;0.80;;;;;;;;;;5042095;28;20058;-70
2024/01/05 08:55:57;;;;;;;1.67;0.90;;;;;;;;;;5028281;28;20132;-70
2024/01/05 08:58:24;;;;;;;2.53;0.95;;;;;;;;;;5032877;28;20091;-70
2024/01/05 09:00:50;;;;;;;2.78;1.00;;;;;;;;;;5039123;28;20577;-70
2024/01/05 09:03:17;;;;;;;1.77;1.23;;;;;;;;;;5042485;28;20393;-70
2024/01/05 09:05:45;;;;;;;1.63;0.90;;;;;;;;;;5042537;28;20103;-70
2024/01/05 09:08:12;;;;;;;1.55;0.90;;;;;;;;;;5042696;28;20049;-70
2024/01/05 09:10:38;;;;;;;0.73;0.70;;;;;;;;;;5042780;28;20487;-70
2024/01/05 09:13:04;;;;;;;1.98;1.05;;;;;;;;;;5042631;28;20092;-70
2024/01/05 09:15:31;;;;;;;2.15;1.08;;;;;;;;;;5042548;28;20065;-71
2024/01/05 09:17:57;;;;;;;2.90;1.10;;;;;;;;;;5041633;28;20050;-70
2024/01/05 09:20:24;;;;;;;2.10;1.02;;;;;;;;;;5042336;28;20064;-70
2024/01/05 09:22:50;;;;;;;1.65;1.10;;;;;;;;;;5024468;28;20555;-70
2024/01/05 09:25:17;;;;;;;2.25;1.00;;;;;;;;;;5041993;28;20058;-70
2024/01/05 09:27:43;;;;;;;5.00;1.20;;;;;;;;;;5033951;28;20053;-71
2024/01/05 09:30:10;;;;;;;1.65;1.40;;;;;;;;;;5030173;28;20049;-70
2024/01/05 09:32:37;;;;;;;1.50;1.10;;;;;;;;;;5046171;28;20061;-70
2024/01/05 09:35:04;;;;;;;1.15;1.10;;;;;;;;;;5047007;28;20049;-70
2024/01/05 09:37:30;;;;;;;1.90;1.27;;;;;;;;;;5046855;28;20518;-70
2024/01/05 09:39:57;;;;;;;1.48;1.38;;;;;;;;;;5047211;28;20053;-70
2024/01/05 09:42:23;;;;;;;1.42;1.15;;;;;;;;;;5047362;28;20056;-70
2024/01/05 09:44:52;;;;;;;1.50;1.40;;;;;;;;;;5045028;28;20061;-71
2024/01/05 09:47:19;;;;;;;1.70;1.60;;;;;;;;;;5044731;28;20061;-70
2024/01/05 09:49:48;;;;;;;3.25;1.60;;;;;;;;;;5045152;28;20050;-70
2024/01/05 09:52:18;;;;;;;1.77;1.60;;;;;;;;;;5046244;28;20061;-70
2024/01/05 09:54:46;;;;;;;3.03;1.85;;;;;;;;;;5037788;28;20058;-70
2024/01/05 09:57:16;;;;;;;2.83;2.10;;;;;;;;;;5028256;28;20073;-70
2024/01/05 09:59:47;;;;;;;2.22;1.98;;;;;;;;;;5046542;28;20057;-70
2024/01/05 10:02:23;;;;;;;2.75;2.13;;;;;;;;;;5046875;28;20926;-70
2024/01/05 10:04:49;;;;;;;1.83;1.63;;;;;;;;;;5036353;28;20583;-70
2024/01/05 10:07:16;;;;;;;1.85;1.70;;;;;;;;;;5046341;28;20150;-70
2024/01/05 10:09:49;;;;;;;2.65;1.60;;;;;;;;;;5046645;28;20072;-69
2024/01/05 10:12:17;;;;;;;4.47;1.85;;;;;;;;;;5045484;28;20054;-70
2024/01/05 10:14:47;;;;;;;3.40;2.00;;;;;;;;;;5032820;28;20060;-70
2024/01/05 10:17:15;;;;;;;2.63;2.03;;;;;;;;;;5045432;28;20069;-70
2024/01/05 10:19:42;;;;;;;4.68;2.60;;;;;;;;;;5043804;28;20057;-72
2024/01/05 10:22:12;;;;;;;1.98;1.75;;;;;;;;;;5044731;28;20057;-72
2024/01/05 10:24:39;;;;;;;3.40;1.67;;;;;;;;;;5045840;28;20045;-71
2024/01/05 10:27:07;;;;;;;2.20;1.90;;;;;;;;;;5045375;28;20053;-71
2024/01/05 10:29:36;;;;;;;4.80;2.67;;;;;;;;;;5044909;28;20132;-71
2024/01/05 10:32:12;;;;;;;4.00;2.20;;;;;;;;;;5044339;28;20566;-70
2024/01/05 10:34:40;;;;;;;3.40;2.15;;;;;;;;;;5025159;28;20058;-69
2024/01/05 10:37:08;;;;;;;4.28;2.90;;;;;;;;;;5029848;28;20065;-69
2024/01/05 10:39:35;;;;;;;4.60;2.88;;;;;;;;;;5044863;28;20578;-70
2024/01/05 10:42:20;;;;;;;3.00;2.67;;;;;;;;;;5041845;28;20053;-70
2024/01/05 10:44:47;;;;;;;;;;;;;;;;;;5045123;28;20049;-71
2024/01/05 10:47:14;;;;;;;5.35;3.03;;;;;;;;;;5042310;28;45277;-71
2024/01/05 10:49:45;;;;;;;3.50;3.10;;;;;;;;;;5040515;28;20642;-71
2024/01/05 10:52:12;;;;;;;4.10;3.17;;;;;;;;;;5043979;28;20942;-71
2024/01/05 10:54:39;;;;;;;3.65;3.10;;;;;;;;;;5045151;28;20100;-69
2024/01/05 10:57:06;;;;;;;3.00;2.78;;;;;;;;;;5044667;28;20049;-70
2024/01/05 10:59:34;;;;;;;5.45;4.43;;;;;;;;;;5044662;28;20054;-70
2024/01/05 11:02:02;;;;;;;6.32;4.00;;;;;;;;;;5042251;28;20064;-71
2024/01/05 11:04:30;;;;;;;3.50;3.20;;;;;;;;;;5042729;28;20176;-70
2024/01/05 11:06:58;;;;;;;5.70;3.90;;;;;;;;;;5043852;28;20065;-70
2024/01/05 11:09:39;;;;;;;4.30;3.42;;;;;;;;;;5045079;28;20060;-71
2024/01/05 11:12:27;;;;;;;3.92;3.53;;;;;;;;;;5041346;28;20060;-70
2024/01/05 11:15:00;;;;;;;3.95;3.55;;;;;;;;;;5041774;28;20053;-69
2024/01/05 11:17:35;;;;;;;5.03;3.83;;;;;;;;;;5043500;28;20133;-70
2024/01/05 11:20:19;;;;;;;3.90;3.50;;;;;;;;;;5044404;28;20127;-70
2024/01/05 11:22:47;;;;;;;4.85;3.38;;;;;;;;;;5043876;28;20054;-72
2024/01/05 11:25:15;;;;;;;4.30;3.90;;;;;;;;;;5044098;28;20050;-70
2024/01/05 11:27:48;;;;;;;5.20;3.28;;;;;;;;;;5044340;28;20911;-70
2024/01/05 11:30:34;;;;;;;4.10;3.50;;;;;;;;;;5044363;28;20053;-72
2024/01/05 11:33:01;;;;;;;5.90;3.60;;;;;;;;;;5024417;28;20052;-70
2024/01/05 11:35:50;;;;;;;5.32;3.05;;;;;;;;;;5025849;28;20054;-70
2024/01/05 11:38:26;;;;;;;3.75;3.38;;;;;;;;;;5043815;28;20046;-70
2024/01/05 11:40:53;;;;;;;4.70;3.30;;;;;;;;;;5044145;28;20695;-70
2024/01/05 11:43:28;;;;;;;4.97;3.85;;;;;;;;;;5042891;28;20068;-70
2024/01/05 11:45:55;;;;;;;;;;;;;;;;;;5043032;28;20085;-71
2024/01/05 11:48:33;;;;;;;4.68;3.17;;;;;;;;;;5042800;28;44792;-70
2024/01/05 11:51:07;;;;;;;3.72;3.35;;;;;;;;;;5043603;28;20111;-69
2024/01/05 11:53:33;;;;;;;4.68;4.20;;;;;;;;;;5043488;28;20053;-69
2024/01/05 11:56:03;;;;;;;3.78;2.90;;;;;;;;;;5039662;28;20057;-70
2024/01/05 11:58:38;;;;;;;4.20;3.70;;;;;;;;;;5040908;28;20519;-70
2024/01/05 12:01:07;;;;;;;4.25;3.08;;;;;;;;;;5038504;28;20061;-69
2024/01/05 12:03:33;;;;;;;4.00;3.50;;;;;;;;;;5030097;28;20056;-70
2024/01/05 12:06:01;;;;;;;3.95;3.63;;;;;;;;;;5042848;28;20613;-70
2024/01/05 12:08:28;;;;;;;3.95;3.47;;;;;;;;;;5043988;28;20059;-71
2024/01/05 12:11:00;;;;;;;3.35;3.00;;;;;;;;;;5042985;28;20064;-69
2024/01/05 12:13:27;;;;;;;4.00;3.30;;;;;;;;;;5042462;28;20057;-69
2024/01/05 12:15:54;;;;;;;3.40;2.67;;;;;;;;;;5042963;28;20521;-71
2024/01/05 12:18:29;;;;;;;3.47;3.10;;;;;;;;;;5043856;28;20058;-69
2024/01/05 12:21:04;;;;;;;3.60;2.75;;;;;;;;;;5027822;28;20474;-69
2024/01/05 12:23:30;;;;;;;3.70;3.17;;;;;;;;;;5043133;28;20100;-70
2024/01/05 12:25:59;;;;;;;4.13;3.15;;;;;;;;;;5036013;28;20053;-70
2024/01/05 12:28:30;;;;;;;5.55;3.00;;;;;;;;;;5043374;28;20053;-70
2024/01/05 12:30:57;;;;;;;3.60;3.30;;;;;;;;;;5042604;28;20128;-70
2024/01/05 12:33:24;;;;;;;3.78;3.20;;;;;;;;;;5043107;28;20057;-70
2024/01/05 12:35:52;;;;;;;3.63;3.20;;;;;;;;;;5039004;28;20046;-73
2024/01/05 12:38:23;;;;;;;3.78;3.38;;;;;;;;;;5023573;28;20145;-72
2024/01/05 12:40:50;;;;;;;4.28;3.88;;;;;;;;;;5023716;28;20534;-70
2024/01/05 12:43:17;;;;;;;3.85;3.47;;;;;;;;;;5039993;28;20559;-69
2024/01/05 12:45:46;;;;;;;4.75;4.30;;;;;;;;;;5043192;28;20050;-72
2024/01/05 12:48:12;;;;;;;4.65;4.20;;;;;;;;;;5023495;28;20530;-71
2024/01/05 12:50:40;;;;;;;4.55;4.13;;;;;;;;;;5023160;28;20054;-71
2024/01/05 12:53:19;;;;;;;4.72;3.97;;;;;;;;;;5042427;28;20049;-71
2024/01/05 12:55:46;;;;;;;7.28;4.90;;;;;;;;;;5042638;28;20135;-71
2024/01/05 12:58:12;;;;;;;4.72;3.90;;;;;;;;;;5031479;28;20054;-71
2024/01/05 13:00:44;;;;;;;5.80;4.65;;;;;;;;;;5038733;28;20168;-71
2024/01/05 13:03:16;;;;;;;5.57;4.75;;;;;;;;;;5042063;28;20512;-71
2024/01/05 13:05:43;;;;;;;5.65;4.53;;;;;;;;;;5023953;28;20980;-71
2024/01/05 13:08:10;;;;;;;7.03;5.57;;;;;;;;;;5042267;28;20057;-71
2024/01/05 13:10:36;;;;;;;8.48;5.65;;;;;;;;;;5042928;28;20089;-72
2024/01/05 13:13:06;;;;;;;7.32;5.72;;;;;;;;;;5040784;28;20060;-70
2024/01/05 13:15:33;;;;;;;8.68;7.38;;;;;;;;;;5042588;28;20099;-69
2024/01/05 13:18:00;;;;;;;9.38;7.65;;;;;;;;;;5042669;28;20454;-70
2024/01/05 13:20:26;;;;;;;9.75;8.27;;;;;;;;;;5042552;28;20058;-70
2024/01/05 13:23:00;;;;;;;12.30;9.05;;;;;;;;;;5041492;28;20049;-71
2024/01/05 13:25:26;;;;;;;10.82;8.82;;;;;;;;;;5042758;28;20119;-70
2024/01/05 13:27:53;;;;;;;11.40;8.93;;;;;;;;;;5040922;28;20515;-69
2024/01/05 13:30:20;;;;;;;12.80;10.15;;;;;;;;;;5041635;28;20581;-68
2024/01/05 13:32:49;;;;;;;14.13;11.23;;;;;;;;;;5033024;28;20054;-70
2024/01/05 13:35:16;;;;;;;14.00;11.05;;;;;;;;;;5022423;28;20104;-70
2024/01/05 13:37:43;;;;;;;14.60;10.52;;;;;;;;;;5035074;28;20064;-70
2024/01/05 13:40:10;;;;;;;16.27;11.68;;;;;;;;;;5042582;28;20946;-70
2024/01/05 13:42:36;;;;;;;14.30;11.40;;;;;;;;;;5030008;28;20064;-71
2024/01/05 13:45:05;;;;;;;15.23;10.82;;;;;;;;;;5041891;28;20065;-71
2024/01/05 13:47:32;;;;;;;14.07;10.55;;;;;;;;;;5041880;28;20447;-70
2024/01/05 13:49:59;;;;;;;14.32;10.43;;;;;;;;;;5038549;28;20723;-71
2024/01/05 13:52:26;;;;;;;15.10;11.07;;;;;;;;;;5042054;28;20080;-70
2024/01/05 13:54:52;;;;;;;12.93;10.38;;;;;;;;;;5042804;28;20061;-70
2024/01/05 13:57:21;;;;;;;12.50;9.80;;;;;;;;;;5039696;28;20049;-71
2024/01/05 13:59:48;;;;;;;13.32;9.70;;;;;;;;;;5042544;28;20128;-71
2024/01/05 14:02:20;;;;;;;15.32;10.60;;;;;;;;;;5040379;28;20060;-69
2024/01/05 14:04:49;;;;;;;13.10;9.52;;;;;;;;;;5040779;28;20586;-71
2024/01/05 14:07:16;;;;;;;15.27;10.93;;;;;;;;;;5038795;28;20141;-70
2024/01/05 14:09:42;;;;;;;12.73;9.35;;;;;;;;;;5036109;28;20049;-71
2024/01/05 14:12:09;;;;;;;13.93;9.38;;;;;;;;;;5042031;28;20060;-70
2024/01/05 14:14:36;;;;;;;10.48;8.57;;;;;;;;;;5042695;28;20060;-70
2024/01/05 14:17:03;;;;;;;13.50;9.23;;;;;;;;;;5021631;28;20050;-72
2024/01/05 14:19:29;;;;;;;9.65;8.10;;;;;;;;;;5044365;28;20486;-71
2024/01/05 14:21:57;;;;;;;9.25;7.85;;;;;;;;;;5036699;28;20590;-69
2024/01/05 14:24:26;;;;;;;8.43;7.25;;;;;;;;;;5031196;28;20058;-72
2024/01/05 14:26:53;;;;;;;8.90;6.90;;;;;;;;;;5031041;28;20041;-72
2024/01/05 14:29:19;;;;;;;11.10;7.10;;;;;;;;;;5045533;28;20060;-71
2024/01/05 14:31:47;;;;;;;9.50;7.10;;;;;;;;;;5043059;28;20060;-71
2024/01/05 14:34:14;;;;;;;10.88;7.18;;;;;;;;;;5042352;28;20049;-71
2024/01/05 14:36:40;;;;;;;7.75;6.38;;;;;;;;;;5030222;28;20069;-72
2024/01/05 14:39:07;;;;;;;6.55;5.85;;;;;;;;;;5036814;28;20495;-72